sensor_id;sensor_type;location;lat;lon;timestamp;P1;durP1;ratioP1;P2;durP2;ratioP2
64244;SDS011;50584;29.058;-110.966;2023-02-15T00:01:31;5.97;;;1.85;;
64244;SDS011;50584;29.058;-110.966;2023-02-15T00:03:57;7.18;;;2.00;;
64244;SDS011;50584;29.058;-110.966;2023-02-15T00:06:23;5.63;;;1.73;;
64244;SDS011;50584;29.058;-110.966;2023-02-15T00:08:49;6.20;;;2.15;;
64244;SDS011;50584;29.058;-110.966;2023-02-15T00:11:15;6.10;;;2.35;;
64244;SDS011;50584;29.058;-110.966;2023-02-15T00:13:41;12.30;;;3.67;;
64244;SDS011;50584;29.058;-110.966;2023-02-15T00:16:11;9.73;;;4.57;;
64244;SDS011;50584;29.058;-110.966;2023-02-15T00:18:38;9.18;;;2.53;;
64244;SDS011;50584;29.058;-110.966;2023-02-15T00:21:05;6.55;;;2.20;;
64244;SDS011;50584;29.058;-110.966;2023-02-15T00:23:32;7.22;;;2.20;;
64244;SDS011;50584;29.058;-110.966;2023-02-15T00:26:08;6.35;;;2.50;;
64244;SDS011;50584;29.058;-110.966;2023-02-15T00:28:33;5.90;;;2.80;;
64244;SDS011;50584;29.058;-110.966;2023-02-15T00:31:06;7.38;;;1.98;;
64244;SDS011;50584;29.058;-110.966;2023-02-15T00:33:32;13.27;;;2.67;;
64244;SDS011;50584;29.058;-110.966;2023-02-15T00:35:58;7.82;;;2.33;;
64244;SDS011;50584;29.058;-110.966;2023-02-15T00:38:25;6.45;;;1.80;;
64244;SDS011;50584;29.058;-110.966;2023-02-15T00:40:54;7.03;;;2.30;;
64244;SDS011;50584;29.058;-110.966;2023-02-15T00:43:20;8.10;;;2.22;;
64244;SDS011;50584;29.058;-110.966;2023-02-15T00:45:46;4.88;;;2.15;;
64244;SDS011;50584;29.058;-110.966;2023-02-15T00:48:12;5.50;;;2.20;;
64244;SDS011;50584;29.058;-110.966;2023-02-15T00:50:38;12.90;;;2.92;;
64244;SDS011;50584;29.058;-110.966;2023-02-15T00:53:04;6.07;;;2.63;;
64244;SDS011;50584;29.058;-110.966;2023-02-15T00:55:30;3.92;;;1.95;;
64244;SDS011;50584;29.058;-110.966;2023-02-15T00:57:55;8.10;;;2.38;;
64244;SDS011;50584;29.058;-110.966;2023-02-15T01:00:21;7.32;;;2.00;;
64244;SDS011;50584;29.058;-110.966;2023-02-15T01:02:47;4.72;;;1.75;;
64244;SDS011;50584;29.058;-110.966;2023-02-15T01:05:13;9.95;;;2.58;;
64244;SDS011;50584;29.058;-110.966;2023-02-15T01:07:38;11.15;;;2.03;;
64244;SDS011;50584;29.058;-110.966;2023-02-15T01:10:05;11.07;;;2.58;;
64244;SDS011;50584;29.058;-110.966;2023-02-15T01:12:32;6.57;;;2.30;;
64244;SDS011;50584;29.058;-110.966;2023-02-15T01:14:58;10.52;;;2.83;;
64244;SDS011;50584;29.058;-110.966;2023-02-15T01:17:23;11.10;;;3.47;;
64244;SDS011;50584;29.058;-110.966;2023-02-15T01:19:49;10.77;;;2.30;;
64244;SDS011;50584;29.058;-110.966;2023-02-15T01:22:16;7.28;;;2.55;;
64244;SDS011;50584;29.058;-110.966;2023-02-15T01:24:42;7.05;;;2.30;;
64244;SDS011;50584;29.058;-110.966;2023-02-15T01:27:08;9.45;;;2.03;;
64244;SDS011;50584;29.058;-110.966;2023-02-15T01:29:34;7.95;;;2.80;;
64244;SDS011;50584;29.058;-110.966;2023-02-15T01:31:59;12.75;;;2.42;;
64244;SDS011;50584;29.058;-110.966;2023-02-15T01:34:25;11.55;;;2.40;;
64244;SDS011;50584;29.058;-110.966;2023-02-15T01:36:51;6.53;;;2.50;;
64244;SDS011;50584;29.058;-110.966;2023-02-15T01:39:17;10.60;;;2.60;;
64244;SDS011;50584;29.058;-110.966;2023-02-15T01:41:42;8.55;;;2.45;;
64244;SDS011;50584;29.058;-110.966;2023-02-15T01:46:53;9.18;;;2.38;;
64244;SDS011;50584;29.058;-110.966;2023-02-15T01:49:19;6.38;;;2.50;;
64244;SDS011;50584;29.058;-110.966;2023-02-15T01:51:47;10.63;;;2.50;;
64244;SDS011;50584;29.058;-110.966;2023-02-15T01:54:25;7.65;;;2.45;;
64244;SDS011;50584;29.058;-110.966;2023-02-15T01:56:54;8.68;;;2.30;;
64244;SDS011;50584;29.058;-110.966;2023-02-15T01:59:21;7.43;;;2.38;;
64244;SDS011;50584;29.058;-110.966;2023-02-15T02:01:47;15.18;;;2.55;;
64244;SDS011;50584;29.058;-110.966;2023-02-15T02:06:42;7.50;;;2.20;;
64244;SDS011;50584;29.058;-110.966;2023-02-15T02:09:09;8.25;;;2.25;;
64244;SDS011;50584;29.058;-110.966;2023-02-15T02:11:35;11.15;;;2.30;;
64244;SDS011;50584;29.058;-110.966;2023-02-15T02:14:01;7.60;;;2.40;;
64244;SDS011;50584;29.058;-110.966;2023-02-15T02:16:42;6.28;;;2.50;;
64244;SDS011;50584;29.058;-110.966;2023-02-15T02:22:23;5.65;;;2.30;;
64244;SDS011;50584;29.058;-110.966;2023-02-15T02:38:13;7.32;;;2.85;;
64244;SDS011;50584;29.058;-110.966;2023-02-15T02:43:11;10.07;;;3.05;;
64244;SDS011;50584;29.058;-110.966;2023-02-15T02:45:43;13.45;;;4.82;;
64244;SDS011;50584;29.058;-110.966;2023-02-15T02:48:18;10.80;;;2.97;;
64244;SDS011;50584;29.058;-110.966;2023-02-15T02:50:46;9.25;;;3.20;;
64244;SDS011;50584;29.058;-110.966;2023-02-15T02:53:12;17.65;;;3.92;;
64244;SDS011;50584;29.058;-110.966;2023-02-15T02:55:42;9.93;;;2.92;;
64244;SDS011;50584;29.058;-110.966;2023-02-15T03:00:45;10.18;;;3.30;;
64244;SDS011;50584;29.058;-110.966;2023-02-15T03:03:12;15.25;;;4.32;;
64244;SDS011;50584;29.058;-110.966;2023-02-15T03:05:41;14.25;;;3.70;;
64244;SDS011;50584;29.058;-110.966;2023-02-15T03:08:09;15.77;;;3.72;;
64244;SDS011;50584;29.058;-110.966;2023-02-15T03:10:37;16.88;;;3.97;;
64244;SDS011;50584;29.058;-110.966;2023-02-15T03:13:03;18.77;;;9.05;;
64244;SDS011;50584;29.058;-110.966;2023-02-15T03:15:30;28.38;;;8.77;;
64244;SDS011;50584;29.058;-110.966;2023-02-15T03:18:17;19.83;;;4.55;;
64244;SDS011;50584;29.058;-110.966;2023-02-15T03:20:45;21.60;;;5.07;;
64244;SDS011;50584;29.058;-110.966;2023-02-15T03:23:13;13.60;;;3.80;;
64244;SDS011;50584;29.058;-110.966;2023-02-15T03:25:46;33.63;;;6.80;;
64244;SDS011;50584;29.058;-110.966;2023-02-15T03:28:18;18.55;;;5.40;;
64244;SDS011;50584;29.058;-110.966;2023-02-15T03:30:45;12.52;;;5.35;;
64244;SDS011;50584;29.058;-110.966;2023-02-15T03:33:13;16.55;;;6.60;;
64244;SDS011;50584;29.058;-110.966;2023-02-15T03:38:09;9.35;;;3.35;;
64244;SDS011;50584;29.058;-110.966;2023-02-15T03:40:38;12.45;;;3.63;;
64244;SDS011;50584;29.058;-110.966;2023-02-15T03:43:31;12.00;;;4.07;;
64244;SDS011;50584;29.058;-110.966;2023-02-15T03:46:00;11.48;;;2.83;;
64244;SDS011;50584;29.058;-110.966;2023-02-15T03:48:28;13.82;;;4.78;;
64244;SDS011;50584;29.058;-110.966;2023-02-15T03:51:00;11.55;;;4.10;;
64244;SDS011;50584;29.058;-110.966;2023-02-15T03:53:46;14.45;;;4.38;;
64244;SDS011;50584;29.058;-110.966;2023-02-15T03:56:12;11.63;;;4.05;;
64244;SDS011;50584;29.058;-110.966;2023-02-15T03:58:37;19.95;;;4.05;;
64244;SDS011;50584;29.058;-110.966;2023-02-15T04:01:38;12.63;;;4.78;;
64244;SDS011;50584;29.058;-110.966;2023-02-15T04:04:23;25.25;;;4.03;;
64244;SDS011;50584;29.058;-110.966;2023-02-15T04:06:49;23.90;;;3.80;;
64244;SDS011;50584;29.058;-110.966;2023-02-15T04:09:15;12.70;;;4.45;;
64244;SDS011;50584;29.058;-110.966;2023-02-15T04:11:59;21.83;;;3.75;;
64244;SDS011;50584;29.058;-110.966;2023-02-15T04:14:25;18.90;;;4.10;;
64244;SDS011;50584;29.058;-110.966;2023-02-15T04:17:09;13.88;;;4.10;;
64244;SDS011;50584;29.058;-110.966;2023-02-15T04:19:35;14.90;;;4.13;;
64244;SDS011;50584;29.058;-110.966;2023-02-15T04:22:19;11.82;;;4.50;;
64244;SDS011;50584;29.058;-110.966;2023-02-15T04:25:03;16.13;;;4.55;;
64244;SDS011;50584;29.058;-110.966;2023-02-15T04:27:42;10.02;;;3.53;;
64244;SDS011;50584;29.058;-110.966;2023-02-15T04:30:09;21.70;;;4.43;;
64244;SDS011;50584;29.058;-110.966;2023-02-15T04:32:35;19.42;;;4.55;;
64244;SDS011;50584;29.058;-110.966;2023-02-15T04:35:01;13.48;;;3.20;;
64244;SDS011;50584;29.058;-110.966;2023-02-15T04:37:27;22.48;;;4.30;;
64244;SDS011;50584;29.058;-110.966;2023-02-15T04:39:53;18.75;;;4.28;;
64244;SDS011;50584;29.058;-110.966;2023-02-15T04:42:19;9.25;;;3.00;;
64244;SDS011;50584;29.058;-110.966;2023-02-15T04:44:45;19.35;;;4.32;;
64244;SDS011;50584;29.058;-110.966;2023-02-15T04:47:11;16.60;;;4.30;;
64244;SDS011;50584;29.058;-110.966;2023-02-15T04:49:36;22.48;;;3.63;;
64244;SDS011;50584;29.058;-110.966;2023-02-15T04:52:02;16.80;;;3.90;;
64244;SDS011;50584;29.058;-110.966;2023-02-15T04:54:28;16.00;;;4.20;;
64244;SDS011;50584;29.058;-110.966;2023-02-15T04:56:54;18.65;;;3.30;;
64244;SDS011;50584;29.058;-110.966;2023-02-15T04:59:19;8.68;;;2.80;;
64244;SDS011;50584;29.058;-110.966;2023-02-15T05:01:45;10.77;;;2.83;;
64244;SDS011;50584;29.058;-110.966;2023-02-15T05:04:11;14.18;;;3.10;;
64244;SDS011;50584;29.058;-110.966;2023-02-15T05:06:37;14.13;;;2.75;;
64244;SDS011;50584;29.058;-110.966;2023-02-15T05:09:06;10.85;;;3.20;;
64244;SDS011;50584;29.058;-110.966;2023-02-15T05:11:31;10.43;;;4.18;;
64244;SDS011;50584;29.058;-110.966;2023-02-15T05:13:57;10.05;;;3.00;;
64244;SDS011;50584;29.058;-110.966;2023-02-15T05:16:23;10.13;;;2.67;;
64244;SDS011;50584;29.058;-110.966;2023-02-15T05:18:49;13.82;;;3.22;;
64244;SDS011;50584;29.058;-110.966;2023-02-15T05:21:14;12.63;;;2.83;;
64244;SDS011;50584;29.058;-110.966;2023-02-15T05:23:41;11.40;;;2.55;;
64244;SDS011;50584;29.058;-110.966;2023-02-15T05:26:10;7.55;;;2.85;;
64244;SDS011;50584;29.058;-110.966;2023-02-15T05:28:55;11.15;;;2.13;;
64244;SDS011;50584;29.058;-110.966;2023-02-15T05:31:21;8.07;;;2.15;;
64244;SDS011;50584;29.058;-110.966;2023-02-15T05:33:47;12.52;;;2.70;;
64244;SDS011;50584;29.058;-110.966;2023-02-15T05:36:13;7.03;;;2.97;;
64244;SDS011;50584;29.058;-110.966;2023-02-15T05:38:39;8.68;;;2.92;;
64244;SDS011;50584;29.058;-110.966;2023-02-15T05:41:05;11.60;;;2.67;;
64244;SDS011;50584;29.058;-110.966;2023-02-15T05:43:31;9.50;;;2.92;;
64244;SDS011;50584;29.058;-110.966;2023-02-15T05:45:57;12.70;;;3.40;;
64244;SDS011;50584;29.058;-110.966;2023-02-15T05:48:23;8.38;;;2.72;;
64244;SDS011;50584;29.058;-110.966;2023-02-15T05:50:57;10.55;;;3.15;;
64244;SDS011;50584;29.058;-110.966;2023-02-15T05:53:23;6.60;;;2.83;;
64244;SDS011;50584;29.058;-110.966;2023-02-15T05:55:49;10.82;;;2.65;;
64244;SDS011;50584;29.058;-110.966;2023-02-15T05:58:14;9.73;;;2.75;;
64244;SDS011;50584;29.058;-110.966;2023-02-15T06:00:40;7.13;;;2.60;;
64244;SDS011;50584;29.058;-110.966;2023-02-15T06:03:06;7.00;;;2.60;;
64244;SDS011;50584;29.058;-110.966;2023-02-15T06:05:32;6.85;;;2.10;;
64244;SDS011;50584;29.058;-110.966;2023-02-15T06:07:57;9.85;;;2.10;;
64244;SDS011;50584;29.058;-110.966;2023-02-15T06:10:23;7.63;;;2.70;;
64244;SDS011;50584;29.058;-110.966;2023-02-15T06:12:49;9.43;;;2.60;;
64244;SDS011;50584;29.058;-110.966;2023-02-15T06:15:15;9.93;;;2.70;;
64244;SDS011;50584;29.058;-110.966;2023-02-15T06:17:41;6.05;;;1.98;;
64244;SDS011;50584;29.058;-110.966;2023-02-15T06:20:08;18.27;;;2.53;;
64244;SDS011;50584;29.058;-110.966;2023-02-15T06:22:34;10.85;;;2.35;;
64244;SDS011;50584;29.058;-110.966;2023-02-15T06:25:00;9.63;;;2.88;;
64244;SDS011;50584;29.058;-110.966;2023-02-15T06:27:25;10.27;;;2.88;;
64244;SDS011;50584;29.058;-110.966;2023-02-15T06:29:51;14.07;;;3.20;;
64244;SDS011;50584;29.058;-110.966;2023-02-15T06:32:17;6.35;;;2.53;;
64244;SDS011;50584;29.058;-110.966;2023-02-15T06:34:43;12.52;;;3.15;;
64244;SDS011;50584;29.058;-110.966;2023-02-15T06:37:09;10.48;;;2.65;;
64244;SDS011;50584;29.058;-110.966;2023-02-15T06:39:34;8.10;;;2.88;;
64244;SDS011;50584;29.058;-110.966;2023-02-15T06:42:00;9.25;;;3.38;;
64244;SDS011;50584;29.058;-110.966;2023-02-15T06:44:26;14.15;;;3.13;;
64244;SDS011;50584;29.058;-110.966;2023-02-15T06:46:52;8.55;;;3.13;;
64244;SDS011;50584;29.058;-110.966;2023-02-15T06:49:17;11.85;;;2.35;;
64244;SDS011;50584;29.058;-110.966;2023-02-15T06:51:45;6.13;;;2.42;;
64244;SDS011;50584;29.058;-110.966;2023-02-15T06:54:11;7.80;;;2.75;;
64244;SDS011;50584;29.058;-110.966;2023-02-15T06:56:37;14.02;;;2.67;;
64244;SDS011;50584;29.058;-110.966;2023-02-15T06:59:03;6.40;;;2.10;;
64244;SDS011;50584;29.058;-110.966;2023-02-15T07:01:29;9.55;;;2.75;;
64244;SDS011;50584;29.058;-110.966;2023-02-15T07:03:55;14.32;;;2.50;;
64244;SDS011;50584;29.058;-110.966;2023-02-15T07:06:21;10.07;;;2.90;;
64244;SDS011;50584;29.058;-110.966;2023-02-15T07:08:47;6.55;;;2.22;;
64244;SDS011;50584;29.058;-110.966;2023-02-15T07:11:12;6.03;;;2.15;;
64244;SDS011;50584;29.058;-110.966;2023-02-15T07:13:56;9.55;;;2.35;;
64244;SDS011;50584;29.058;-110.966;2023-02-15T07:16:22;16.15;;;2.13;;
64244;SDS011;50584;29.058;-110.966;2023-02-15T07:18:48;9.10;;;2.38;;
64244;SDS011;50584;29.058;-110.966;2023-02-15T07:21:14;9.27;;;1.98;;
64244;SDS011;50584;29.058;-110.966;2023-02-15T07:23:40;12.93;;;2.90;;
64244;SDS011;50584;29.058;-110.966;2023-02-15T07:26:06;3.42;;;1.83;;
64244;SDS011;50584;29.058;-110.966;2023-02-15T07:28:35;14.55;;;2.25;;
64244;SDS011;50584;29.058;-110.966;2023-02-15T07:31:01;12.45;;;2.35;;
64244;SDS011;50584;29.058;-110.966;2023-02-15T07:33:27;9.70;;;2.38;;
64244;SDS011;50584;29.058;-110.966;2023-02-15T07:35:55;7.90;;;2.33;;
64244;SDS011;50584;29.058;-110.966;2023-02-15T07:38:23;7.30;;;2.47;;
64244;SDS011;50584;29.058;-110.966;2023-02-15T07:40:49;9.90;;;2.05;;
64244;SDS011;50584;29.058;-110.966;2023-02-15T07:43:15;7.05;;;2.53;;
64244;SDS011;50584;29.058;-110.966;2023-02-15T07:45:41;12.50;;;2.55;;
64244;SDS011;50584;29.058;-110.966;2023-02-15T07:48:07;15.98;;;2.80;;
64244;SDS011;50584;29.058;-110.966;2023-02-15T07:50:33;5.10;;;2.38;;
64244;SDS011;50584;29.058;-110.966;2023-02-15T07:53:00;4.00;;;2.15;;
64244;SDS011;50584;29.058;-110.966;2023-02-15T07:55:26;8.43;;;2.30;;
64244;SDS011;50584;29.058;-110.966;2023-02-15T07:57:52;7.32;;;2.33;;
64244;SDS011;50584;29.058;-110.966;2023-02-15T08:00:19;11.50;;;2.20;;
64244;SDS011;50584;29.058;-110.966;2023-02-15T08:02:56;16.35;;;2.95;;
64244;SDS011;50584;29.058;-110.966;2023-02-15T08:05:40;3.97;;;2.45;;
64244;SDS011;50584;29.058;-110.966;2023-02-15T08:08:07;9.10;;;2.55;;
64244;SDS011;50584;29.058;-110.966;2023-02-15T08:10:34;7.65;;;2.20;;
64244;SDS011;50584;29.058;-110.966;2023-02-15T08:13:19;9.07;;;1.77;;
64244;SDS011;50584;29.058;-110.966;2023-02-15T08:15:51;9.35;;;2.15;;
64244;SDS011;50584;29.058;-110.966;2023-02-15T08:18:17;6.15;;;1.65;;
64244;SDS011;50584;29.058;-110.966;2023-02-15T08:20:43;7.85;;;2.20;;
64244;SDS011;50584;29.058;-110.966;2023-02-15T08:23:13;4.32;;;1.58;;
64244;SDS011;50584;29.058;-110.966;2023-02-15T08:25:39;5.65;;;1.95;;
64244;SDS011;50584;29.058;-110.966;2023-02-15T08:28:05;9.13;;;2.17;;
64244;SDS011;50584;29.058;-110.966;2023-02-15T08:30:31;4.88;;;1.55;;
64244;SDS011;50584;29.058;-110.966;2023-02-15T08:32:57;6.90;;;1.75;;
64244;SDS011;50584;29.058;-110.966;2023-02-15T08:35:23;12.40;;;2.53;;
64244;SDS011;50584;29.058;-110.966;2023-02-15T08:37:49;6.57;;;1.98;;
64244;SDS011;50584;29.058;-110.966;2023-02-15T08:40:15;3.10;;;1.40;;
64244;SDS011;50584;29.058;-110.966;2023-02-15T08:42:41;6.13;;;1.33;;
64244;SDS011;50584;29.058;-110.966;2023-02-15T08:45:07;4.75;;;1.80;;
64244;SDS011;50584;29.058;-110.966;2023-02-15T08:47:33;1.73;;;1.45;;
64244;SDS011;50584;29.058;-110.966;2023-02-15T08:49:58;4.80;;;1.70;;
64244;SDS011;50584;29.058;-110.966;2023-02-15T08:52:24;5.50;;;2.08;;
64244;SDS011;50584;29.058;-110.966;2023-02-15T08:54:50;8.10;;;1.77;;
64244;SDS011;50584;29.058;-110.966;2023-02-15T08:57:16;5.68;;;1.73;;
64244;SDS011;50584;29.058;-110.966;2023-02-15T08:59:41;5.18;;;1.90;;
64244;SDS011;50584;29.058;-110.966;2023-02-15T09:02:09;3.78;;;1.80;;
64244;SDS011;50584;29.058;-110.966;2023-02-15T09:04:35;6.22;;;1.73;;
64244;SDS011;50584;29.058;-110.966;2023-02-15T09:07:01;6.57;;;1.60;;
64244;SDS011;50584;29.058;-110.966;2023-02-15T09:09:29;5.15;;;1.83;;
64244;SDS011;50584;29.058;-110.966;2023-02-15T09:11:56;8.80;;;2.00;;
64244;SDS011;50584;29.058;-110.966;2023-02-15T09:14:22;7.57;;;2.17;;
64244;SDS011;50584;29.058;-110.966;2023-02-15T09:16:51;4.53;;;1.80;;
64244;SDS011;50584;29.058;-110.966;2023-02-15T09:19:18;4.72;;;2.05;;
64244;SDS011;50584;29.058;-110.966;2023-02-15T09:21:44;5.22;;;1.67;;
64244;SDS011;50584;29.058;-110.966;2023-02-15T09:24:12;6.47;;;1.45;;
64244;SDS011;50584;29.058;-110.966;2023-02-15T09:26:39;5.63;;;1.60;;
64244;SDS011;50584;29.058;-110.966;2023-02-15T09:29:08;4.40;;;1.60;;
64244;SDS011;50584;29.058;-110.966;2023-02-15T09:31:39;4.97;;;1.88;;
64244;SDS011;50584;29.058;-110.966;2023-02-15T09:34:06;6.30;;;1.70;;
64244;SDS011;50584;29.058;-110.966;2023-02-15T09:36:35;8.15;;;2.05;;
64244;SDS011;50584;29.058;-110.966;2023-02-15T09:39:04;4.20;;;1.60;;
64244;SDS011;50584;29.058;-110.966;2023-02-15T09:49:28;7.72;;;1.73;;
64244;SDS011;50584;29.058;-110.966;2023-02-15T09:54:27;4.47;;;1.60;;
64244;SDS011;50584;29.058;-110.966;2023-02-15T09:57:01;4.85;;;1.85;;
64244;SDS011;50584;29.058;-110.966;2023-02-15T09:59:37;3.35;;;1.63;;
64244;SDS011;50584;29.058;-110.966;2023-02-15T10:17:53;6.43;;;1.67;;
64244;SDS011;50584;29.058;-110.966;2023-02-15T10:23:29;9.07;;;1.70;;
64244;SDS011;50584;29.058;-110.966;2023-02-15T10:31:15;5.97;;;1.92;;
64244;SDS011;50584;29.058;-110.966;2023-02-15T10:33:43;6.97;;;1.65;;
64244;SDS011;50584;29.058;-110.966;2023-02-15T10:38:57;11.35;;;2.05;;
64244;SDS011;50584;29.058;-110.966;2023-02-15T10:41:27;7.50;;;1.40;;
64244;SDS011;50584;29.058;-110.966;2023-02-15T10:51:54;3.53;;;1.50;;
64244;SDS011;50584;29.058;-110.966;2023-02-15T10:54:35;5.45;;;1.50;;
64244;SDS011;50584;29.058;-110.966;2023-02-15T10:57:03;4.50;;;1.38;;
64244;SDS011;50584;29.058;-110.966;2023-02-15T10:59:49;9.07;;;1.70;;
64244;SDS011;50584;29.058;-110.966;2023-02-15T11:05:23;7.22;;;1.92;;
64244;SDS011;50584;29.058;-110.966;2023-02-15T11:07:50;3.83;;;1.55;;
64244;SDS011;50584;29.058;-110.966;2023-02-15T11:13:04;8.45;;;1.75;;
64244;SDS011;50584;29.058;-110.966;2023-02-15T11:15:31;7.25;;;1.38;;
64244;SDS011;50584;29.058;-110.966;2023-02-15T11:25:45;6.72;;;1.45;;
64244;SDS011;50584;29.058;-110.966;2023-02-15T11:31:17;3.20;;;1.20;;
64244;SDS011;50584;29.058;-110.966;2023-02-15T11:33:45;3.50;;;1.50;;
64244;SDS011;50584;29.058;-110.966;2023-02-15T11:36:13;4.50;;;1.70;;
64244;SDS011;50584;29.058;-110.966;2023-02-15T11:38:42;2.42;;;1.30;;
64244;SDS011;50584;29.058;-110.966;2023-02-15T11:41:10;5.55;;;1.73;;
64244;SDS011;50584;29.058;-110.966;2023-02-15T11:43:38;8.63;;;2.55;;
64244;SDS011;50584;29.058;-110.966;2023-02-15T11:46:05;5.38;;;1.67;;
64244;SDS011;50584;29.058;-110.966;2023-02-15T11:48:33;8.82;;;2.50;;
64244;SDS011;50584;29.058;-110.966;2023-02-15T11:50:59;7.88;;;1.60;;
64244;SDS011;50584;29.058;-110.966;2023-02-15T11:53:25;3.65;;;1.30;;
64244;SDS011;50584;29.058;-110.966;2023-02-15T11:55:53;5.90;;;1.60;;
64244;SDS011;50584;29.058;-110.966;2023-02-15T12:00:55;3.55;;;1.42;;
64244;SDS011;50584;29.058;-110.966;2023-02-15T12:03:27;6.07;;;1.52;;
64244;SDS011;50584;29.058;-110.966;2023-02-15T12:05:58;5.45;;;1.42;;
64244;SDS011;50584;29.058;-110.966;2023-02-15T12:08:25;5.18;;;1.33;;
64244;SDS011;50584;29.058;-110.966;2023-02-15T12:13:22;6.88;;;1.48;;
64244;SDS011;50584;29.058;-110.966;2023-02-15T12:15:52;5.72;;;1.52;;
64244;SDS011;50584;29.058;-110.966;2023-02-15T12:18:20;10.75;;;1.50;;
64244;SDS011;50584;29.058;-110.966;2023-02-15T12:20:46;3.10;;;1.27;;
64244;SDS011;50584;29.058;-110.966;2023-02-15T12:23:13;7.90;;;1.90;;
64244;SDS011;50584;29.058;-110.966;2023-02-15T12:30:46;6.63;;;1.65;;
64244;SDS011;50584;29.058;-110.966;2023-02-15T12:33:22;5.65;;;2.25;;
64244;SDS011;50584;29.058;-110.966;2023-02-15T12:35:57;10.25;;;1.40;;
64244;SDS011;50584;29.058;-110.966;2023-02-15T12:38:25;4.28;;;2.00;;
64244;SDS011;50584;29.058;-110.966;2023-02-15T12:43:31;6.93;;;1.65;;
64244;SDS011;50584;29.058;-110.966;2023-02-15T12:49:14;2.47;;;1.50;;
64244;SDS011;50584;29.058;-110.966;2023-02-15T12:51:45;5.88;;;1.77;;
64244;SDS011;50584;29.058;-110.966;2023-02-15T12:56:46;6.13;;;1.50;;
64244;SDS011;50584;29.058;-110.966;2023-02-15T12:59:12;5.60;;;1.80;;
64244;SDS011;50584;29.058;-110.966;2023-02-15T13:01:39;4.80;;;1.42;;
64244;SDS011;50584;29.058;-110.966;2023-02-15T13:04:28;10.23;;;1.65;;
64244;SDS011;50584;29.058;-110.966;2023-02-15T13:06:59;4.30;;;1.48;;
64244;SDS011;50584;29.058;-110.966;2023-02-15T13:11:56;8.98;;;1.80;;
64244;SDS011;50584;29.058;-110.966;2023-02-15T13:14:32;4.80;;;1.77;;
64244;SDS011;50584;29.058;-110.966;2023-02-15T13:17:00;5.30;;;1.42;;
64244;SDS011;50584;29.058;-110.966;2023-02-15T13:19:43;3.88;;;1.63;;
64244;SDS011;50584;29.058;-110.966;2023-02-15T13:22:32;5.28;;;1.83;;
64244;SDS011;50584;29.058;-110.966;2023-02-15T13:24:59;6.20;;;1.95;;
64244;SDS011;50584;29.058;-110.966;2023-02-15T13:27:38;4.63;;;2.40;;
64244;SDS011;50584;29.058;-110.966;2023-02-15T13:30:26;8.20;;;2.00;;
64244;SDS011;50584;29.058;-110.966;2023-02-15T13:33:03;6.43;;;2.00;;
64244;SDS011;50584;29.058;-110.966;2023-02-15T13:35:32;9.70;;;2.05;;
64244;SDS011;50584;29.058;-110.966;2023-02-15T13:40:55;4.47;;;2.05;;
64244;SDS011;50584;29.058;-110.966;2023-02-15T13:43:48;7.70;;;1.80;;
64244;SDS011;50584;29.058;-110.966;2023-02-15T13:51:36;65.53;;;29.58;;
64244;SDS011;50584;29.058;-110.966;2023-02-15T14:01:44;144.33;;;68.67;;
64244;SDS011;50584;29.058;-110.966;2023-02-15T14:06:58;74.07;;;31.40;;
64244;SDS011;50584;29.058;-110.966;2023-02-15T14:20:01;34.97;;;15.63;;
64244;SDS011;50584;29.058;-110.966;2023-02-15T14:22:31;34.25;;;16.33;;
64244;SDS011;50584;29.058;-110.966;2023-02-15T14:30:18;61.80;;;27.15;;
64244;SDS011;50584;29.058;-110.966;2023-02-15T14:32:46;38.95;;;19.70;;
64244;SDS011;50584;29.058;-110.966;2023-02-15T14:35:17;47.03;;;21.60;;
64244;SDS011;50584;29.058;-110.966;2023-02-15T14:37:52;23.60;;;9.32;;
64244;SDS011;50584;29.058;-110.966;2023-02-15T14:43:26;148.63;;;70.22;;
64244;SDS011;50584;29.058;-110.966;2023-02-15T14:48:26;42.63;;;16.02;;
64244;SDS011;50584;29.058;-110.966;2023-02-15T14:50:55;136.10;;;64.60;;
64244;SDS011;50584;29.058;-110.966;2023-02-15T14:55:46;110.65;;;47.15;;
64244;SDS011;50584;29.058;-110.966;2023-02-15T14:58:12;95.60;;;45.15;;
64244;SDS011;50584;29.058;-110.966;2023-02-15T15:00:41;88.70;;;39.70;;
64244;SDS011;50584;29.058;-110.966;2023-02-15T15:03:11;108.18;;;50.05;;
64244;SDS011;50584;29.058;-110.966;2023-02-15T15:05:46;68.05;;;34.38;;
64244;SDS011;50584;29.058;-110.966;2023-02-15T15:10:57;9.50;;;4.50;;
64244;SDS011;50584;29.058;-110.966;2023-02-15T15:13:56;17.80;;;4.60;;
64244;SDS011;50584;29.058;-110.966;2023-02-15T15:16:29;58.72;;;26.65;;
64244;SDS011;50584;29.058;-110.966;2023-02-15T15:18:56;6.25;;;4.00;;
64244;SDS011;50584;29.058;-110.966;2023-02-15T15:24:06;21.08;;;9.90;;
64244;SDS011;50584;29.058;-110.966;2023-02-15T15:26:32;13.60;;;7.07;;
64244;SDS011;50584;29.058;-110.966;2023-02-15T15:29:12;37.90;;;17.13;;
64244;SDS011;50584;29.058;-110.966;2023-02-15T15:34:13;12.30;;;3.15;;
64244;SDS011;50584;29.058;-110.966;2023-02-15T15:37:32;16.63;;;4.70;;
64244;SDS011;50584;29.058;-110.966;2023-02-15T15:39:37;30.48;;;16.35;;
64244;SDS011;50584;29.058;-110.966;2023-02-15T15:42:12;10.20;;;4.55;;
64244;SDS011;50584;29.058;-110.966;2023-02-15T15:49:30;9.27;;;5.35;;
64244;SDS011;50584;29.058;-110.966;2023-02-15T15:51:59;22.17;;;11.15;;
64244;SDS011;50584;29.058;-110.966;2023-02-15T15:54:25;12.13;;;5.80;;
64244;SDS011;50584;29.058;-110.966;2023-02-15T15:56:59;14.13;;;6.38;;
64244;SDS011;50584;29.058;-110.966;2023-02-15T15:59:27;10.85;;;4.05;;
64244;SDS011;50584;29.058;-110.966;2023-02-15T16:01:53;17.75;;;5.85;;
64244;SDS011;50584;29.058;-110.966;2023-02-15T16:04:30;11.35;;;4.18;;
64244;SDS011;50584;29.058;-110.966;2023-02-15T16:06:57;10.45;;;2.20;;
64244;SDS011;50584;29.058;-110.966;2023-02-15T16:09:27;9.75;;;1.95;;
64244;SDS011;50584;29.058;-110.966;2023-02-15T16:11:53;22.08;;;9.38;;
64244;SDS011;50584;29.058;-110.966;2023-02-15T16:14:35;9.95;;;6.13;;
64244;SDS011;50584;29.058;-110.966;2023-02-15T16:17:02;7.22;;;2.10;;
64244;SDS011;50584;29.058;-110.966;2023-02-15T16:19:30;10.32;;;2.72;;
64244;SDS011;50584;29.058;-110.966;2023-02-15T16:21:58;9.48;;;3.15;;
64244;SDS011;50584;29.058;-110.966;2023-02-15T16:29:26;4.20;;;1.95;;
64244;SDS011;50584;29.058;-110.966;2023-02-15T16:32:00;9.82;;;1.65;;
64244;SDS011;50584;29.058;-110.966;2023-02-15T16:34:25;5.80;;;3.70;;
64244;SDS011;50584;29.058;-110.966;2023-02-15T16:39:52;5.75;;;1.48;;
64244;SDS011;50584;29.058;-110.966;2023-02-15T16:42:18;3.72;;;1.85;;
64244;SDS011;50584;29.058;-110.966;2023-02-15T16:44:45;6.30;;;1.90;;
64244;SDS011;50584;29.058;-110.966;2023-02-15T16:47:16;3.55;;;1.70;;
64244;SDS011;50584;29.058;-110.966;2023-02-15T16:49:43;3.50;;;1.40;;
64244;SDS011;50584;29.058;-110.966;2023-02-15T16:52:12;5.57;;;1.60;;
64244;SDS011;50584;29.058;-110.966;2023-02-15T16:54:41;6.70;;;1.67;;
64244;SDS011;50584;29.058;-110.966;2023-02-15T16:57:18;5.93;;;1.95;;
64244;SDS011;50584;29.058;-110.966;2023-02-15T16:59:45;7.75;;;1.67;;
64244;SDS011;50584;29.058;-110.966;2023-02-15T17:02:19;4.68;;;2.33;;
64244;SDS011;50584;29.058;-110.966;2023-02-15T17:04:59;6.95;;;2.20;;
64244;SDS011;50584;29.058;-110.966;2023-02-15T17:07:26;5.32;;;1.60;;
64244;SDS011;50584;29.058;-110.966;2023-02-15T17:09:53;8.00;;;1.90;;